Time;durP1;ratioP1;P1;durP2;ratioP2;P2;SDS_P1;SDS_P2;PMS_P1;PMS_P2;Temp;Humidity;BMP_temperature;BMP_pressure;BME280_temperature;BME280_humidity;BME280_pressure;Samples;Min_cycle;Max_cycle;Signal;HPM_P1;HPM_P2
2021/09/16 00:00:32;;;;;;;11.53;6.27;;;;;12.40;101096.00;;;;10525582;27;20242;-77
2021/09/16 00:05:33;;;;;;;13.90;5.53;;;;;12.30;101094.00;;;;10546475;27;20274;-78
2021/09/16 00:10:34;;;;;;;7.53;4.40;;;;;12.30;101091.00;;;;10512296;27;20226;-78
2021/09/16 00:15:35;;;;;;;7.73;4.57;;;;;12.30;101094.00;;;;10544189;28;20196;-77
2021/09/16 00:20:37;;;;;;;8.30;5.00;;;;;12.20;101096.00;;;;10544104;28;20211;-78
2021/09/16 00:25:38;;;;;;;11.80;4.97;;;;;12.30;101106.00;;;;10527683;27;20195;-77
2021/09/16 00:30:39;;;;;;;8.60;4.73;;;;;12.30;101112.00;;;;10537473;27;20212;-77
2021/09/16 00:35:40;;;;;;;10.07;4.33;;;;;12.20;101112.00;;;;10527443;27;20643;-77
2021/09/16 00:40:42;;;;;;;9.43;4.17;;;;;12.20;101121.00;;;;10544423;27;20215;-78
2021/09/16 00:45:43;;;;;;;10.97;4.37;;;;;12.10;101125.00;;;;10526542;27;20192;-77
2021/09/16 00:50:44;;;;;;;7.67;4.23;;;;;12.10;101127.00;;;;10526533;27;20281;-78
2021/09/16 00:55:46;;;;;;;11.27;4.37;;;;;12.10;101126.00;;;;10524742;27;20337;-78
2021/09/16 01:00:47;;;;;;;8.60;4.53;;;;;12.10;101125.00;;;;10535956;28;20616;-78
2021/09/16 01:05:50;;;;;;;15.03;5.03;;;;;12.10;101128.00;;;;10501595;28;20277;-78
2021/09/16 01:10:51;;;;;;;10.40;4.30;;;;;12.10;101123.00;;;;10516117;28;20220;-78
2021/09/16 01:15:52;;;;;;;9.90;5.20;;;;;12.10;101122.00;;;;10527068;28;20646;-78
2021/09/16 01:20:54;;;;;;;13.50;5.23;;;;;12.00;101122.00;;;;10507911;28;20207;-78
2021/09/16 01:25:55;;;;;;;13.50;5.83;;;;;12.00;101121.00;;;;10512090;28;20216;-78
2021/09/16 01:30:56;;;;;;;9.70;5.57;;;;;12.00;101133.00;;;;10495209;28;20231;-79
2021/09/16 01:35:58;;;;;;;12.00;6.20;;;;;11.90;101133.00;;;;10500622;28;20199;-78
2021/09/16 01:40:59;;;;;;;16.70;6.43;;;;;11.90;101136.00;;;;10500045;28;20213;-78
2021/09/16 01:46:00;;;;;;;17.07;7.23;;;;;11.90;101133.00;;;;10536455;27;20207;-77
2021/09/16 01:51:08;;;;;;;14.07;6.77;;;;;11.90;101132.00;;;;10511852;27;20268;-78
2021/09/16 01:56:09;;;;;;;11.67;7.27;;;;;11.90;101137.00;;;;10519081;28;20204;-78
2021/09/16 02:01:11;;;;;;;16.53;7.37;;;;;11.80;101130.00;;;;10533098;28;20258;-78
2021/09/16 02:06:14;;;;;;;16.30;8.17;;;;;11.80;101129.00;;;;10514280;28;20285;-78
2021/09/16 02:11:15;;;;;;;15.03;8.13;;;;;11.90;101146.00;;;;10525401;28;20231;-78
2021/09/16 02:16:16;;;;;;;14.60;7.60;;;;;11.90;101146.00;;;;10491311;28;20207;-78
2021/09/16 02:21:18;;;;;;;13.73;8.07;;;;;12.00;101140.00;;;;10507154;28;20300;-78
2021/09/16 02:26:19;;;;;;;14.93;6.93;;;;;12.00;101156.00;;;;10518175;28;20241;-78
2021/09/16 02:31:20;;;;;;;18.07;7.13;;;;;12.00;101157.00;;;;10490381;28;21054;-78
2021/09/16 02:36:21;;;;;;;17.13;7.10;;;;;12.20;101167.00;;;;10490642;28;20188;-78
2021/09/16 02:41:23;;;;;;;10.13;6.90;;;;;12.30;101173.00;;;;10489883;28;20224;-78
2021/09/16 02:46:24;;;;;;;10.73;5.93;;;;;12.50;101181.00;;;;10506089;28;20646;-78
2021/09/16 02:51:25;;;;;;;7.97;5.40;;;;;12.60;101173.00;;;;10472946;28;20256;-78
2021/09/16 02:56:26;;;;;;;10.83;5.10;;;;;12.60;101182.00;;;;10515168;28;20192;-78
2021/09/16 03:01:28;;;;;;;15.63;4.53;;;;;12.60;101183.00;;;;10512799;28;20678;-78
2021/09/16 03:06:29;;;;;;;10.27;4.53;;;;;12.50;101183.00;;;;10528693;28;20192;-79
2021/09/16 03:11:30;;;;;;;9.27;4.27;;;;;12.40;101174.00;;;;10563288;28;20230;-78
2021/09/16 03:16:31;;;;;;;10.10;4.80;;;;;12.40;101173.00;;;;10505656;28;20669;-78
2021/09/16 03:21:33;;;;;;;8.27;3.87;;;;;12.40;101165.00;;;;10522016;28;20195;-78
2021/09/16 03:26:34;;;;;;;11.50;4.03;;;;;12.40;101179.00;;;;10530295;27;20193;-78
2021/09/16 03:31:35;;;;;;;7.37;3.73;;;;;12.30;101178.00;;;;10505248;28;20225;-78
2021/09/16 03:36:37;;;;;;;9.73;4.27;;;;;12.30;101180.00;;;;10504416;28;20188;-78
2021/09/16 03:41:38;;;;;;;10.27;3.83;;;;;12.20;101182.00;;;;10488718;28;20221;-78
2021/09/16 03:46:40;;;;;;;12.87;3.80;;;;;12.20;101179.00;;;;10487694;28;20204;-78
2021/09/16 03:51:41;;;;;;;7.87;4.33;;;;;12.10;101191.00;;;;10503561;28;20503;-78
2021/09/16 03:56:42;;;;;;;7.27;4.10;;;;;12.20;101181.00;;;;10522677;28;20201;-78
2021/09/16 04:01:43;;;;;;;9.17;4.80;;;;;12.20;101180.00;;;;10525530;28;20209;-78
2021/09/16 04:06:45;;;;;;;9.13;4.80;;;;;12.30;101190.00;;;;10486530;28;20188;-78
2021/09/16 04:11:46;;;;;;;9.73;4.40;;;;;12.40;101194.00;;;;10487582;28;20643;-78
2021/09/16 04:16:47;;;;;;;9.37;3.63;;;;;12.50;101191.00;;;;10503176;28;20293;-78
2021/09/16 04:21:48;;;;;;;11.17;4.30;;;;;12.60;101184.00;;;;10507746;27;20192;-78
2021/09/16 04:26:49;;;;;;;8.27;4.00;;;;;12.70;101188.00;;;;10505168;28;20193;-78
2021/09/16 04:31:51;;;;;;;10.30;5.20;;;;;12.90;101186.00;;;;10543555;28;20203;-79
2021/09/16 04:36:55;;;;;;;11.13;5.40;;;;;13.00;101191.00;;;;10526445;28;20202;-79
2021/09/16 04:41:56;;;;;;;11.37;6.43;;;;;13.10;101199.00;;;;10560627;28;20606;-79
2021/09/16 04:46:57;;;;;;;13.33;7.43;;;;;13.30;101202.00;;;;10543864;28;20207;-79
2021/09/16 04:51:58;;;;;;;12.70;7.93;;;;;13.30;101197.00;;;;10527035;28;20199;-78
2021/09/16 04:56:59;;;;;;;16.27;8.30;;;;;13.40;101208.00;;;;10523162;28;20211;-78
2021/09/16 05:02:01;;;;;;;16.17;7.17;;;;;13.40;101203.00;;;;10526424;28;20192;-78
2021/09/16 05:07:03;;;;;;;17.50;7.73;;;;;13.40;101198.00;;;;10526629;28;20231;-78
2021/09/16 05:12:05;;;;;;;13.80;7.20;;;;;13.50;101199.00;;;;10526841;28;20240;-78
2021/09/16 05:17:06;;;;;;;14.40;7.17;;;;;13.50;101194.00;;;;10501113;28;20199;-78
2021/09/16 05:22:08;;;;;;;16.73;6.90;;;;;13.60;101205.00;;;;10492349;28;20193;-78
2021/09/16 05:27:09;;;;;;;13.43;8.03;;;;;13.70;101200.00;;;;10485656;28;20212;-78
2021/09/16 05:32:10;;;;;;;11.47;6.83;;;;;13.80;101206.00;;;;10500324;28;20201;-79
2021/09/16 05:37:11;;;;;;;11.70;6.40;;;;;13.80;101218.00;;;;10502048;28;20208;-78
2021/09/16 05:42:13;;;;;;;13.70;6.83;;;;;13.90;101225.00;;;;10484714;28;20213;-78
2021/09/16 05:47:14;;;;;;;11.07;6.60;;;;;14.00;101225.00;;;;10485652;28;20217;-78
2021/09/16 05:52:16;;;;;;;10.63;6.70;;;;;14.10;101229.00;;;;10503842;27;20205;-79
2021/09/16 05:57:18;;;;;;;13.87;8.17;;;;;14.20;101233.00;;;;10492387;28;20276;-78
2021/09/16 06:02:19;;;;;;;13.53;7.67;;;;;14.30;101251.00;;;;10560756;28;20191;-79
2021/09/16 06:07:21;;;;;;;14.97;8.23;;;;;14.50;101247.00;;;;10522846;28;20223;-78
2021/09/16 06:12:22;;;;;;;17.60;8.33;;;;;14.60;101251.00;;;;10500273;28;20201;-78
2021/09/16 06:17:24;;;;;;;12.77;8.60;;;;;14.70;101253.00;;;;10484055;28;20226;-78
2021/09/16 06:22:25;;;;;;;14.30;8.47;;;;;14.90;101249.00;;;;10492247;28;20193;-79
2021/09/16 06:27:26;;;;;;;17.03;9.90;;;;;15.00;101259.00;;;;10491670;28;20578;-78
2021/09/16 06:32:27;;;;;;;19.97;8.77;;;;;15.20;101263.00;;;;10542980;27;20204;-79
2021/09/16 06:37:29;;;;;;;21.30;10.27;;;;;15.30;101268.00;;;;10542559;27;20769;-78
2021/09/16 06:42:30;;;;;;;16.98;10.75;;;;;15.40;101262.00;;;;10546142;27;20204;-78
2021/09/16 06:47:32;;;;;;;20.73;10.55;;;;;15.70;101269.00;;;;10548890;27;20303;-78
2021/09/16 06:52:33;;;;;;;26.27;11.80;;;;;15.90;101280.00;;;;10474839;28;20225;-78
2021/09/16 06:57:35;;;;;;;21.77;12.05;;;;;16.20;101283.00;;;;10557972;27;20197;-78
2021/09/16 07:02:37;;;;;;;23.52;12.48;;;;;16.40;101279.00;;;;10530945;28;20192;-78
2021/09/16 07:07:39;;;;;;;21.08;13.30;;;;;16.30;101272.00;;;;10504812;28;20245;-78
2021/09/16 07:12:40;;;;;;;23.55;14.10;;;;;16.40;101274.00;;;;10489344;28;20223;-79
2021/09/16 07:17:42;;;;;;;21.48;13.18;;;;;16.80;101281.00;;;;10489750;28;20200;-78
2021/09/16 07:22:43;;;;;;;26.17;15.80;;;;;17.10;101284.00;;;;10519046;27;20219;-78
2021/09/16 07:27:44;;;;;;;24.95;15.35;;;;;17.40;101271.00;;;;10515680;28;20327;-79
2021/09/16 07:32:46;;;;;;;21.63;15.15;;;;;17.80;101276.00;;;;10529974;27;20234;-78
2021/09/16 07:37:47;;;;;;;22.13;14.63;;;;;18.40;101284.00;;;;10506366;28;20243;-78
2021/09/16 07:42:48;;;;;;;24.13;15.00;;;;;18.90;101293.00;;;;10522576;28;20197;-78
2021/09/16 07:47:49;;;;;;;22.60;14.70;;;;;18.50;101302.00;;;;10521068;28;20213;-78
2021/09/16 07:52:50;;;;;;;18.23;13.45;;;;;18.20;101306.00;;;;10503685;28;20224;-78
2021/09/16 07:57:52;;;;;;;20.92;14.65;;;;;18.20;101307.00;;;;10533426;27;20204;-78
2021/09/16 08:02:53;;;;;;;20.38;14.05;;;;;18.80;101302.00;;;;10472597;28;20208;-78
2021/09/16 08:07:54;;;;;;;21.27;13.52;;;;;19.00;101297.00;;;;10509662;27;20227;-79
2021/09/16 08:12:55;;;;;;;21.98;14.13;;;;;19.30;101296.00;;;;10537715;27;20200;-78
2021/09/16 08:17:58;;;;;;;22.23;14.20;;;;;19.50;101296.00;;;;10520751;28;20273;-78
2021/09/16 08:23:00;;;;;;;23.77;13.52;;;;;19.90;101307.00;;;;10528380;27;20196;-78
2021/09/16 08:28:02;;;;;;;16.48;12.60;;;;;20.00;101314.00;;;;10513751;27;20228;-78
2021/09/16 08:33:04;;;;;;;19.40;12.20;;;;;20.50;101309.00;;;;10545613;27;20212;-78
2021/09/16 08:38:06;;;;;;;16.40;12.57;;;;;20.50;101313.00;;;;10544840;27;20235;-78
2021/09/16 08:43:09;;;;;;;14.18;11.65;;;;;20.50;101301.00;;;;10533775;27;20234;-78
2021/09/16 08:48:10;;;;;;;12.93;9.90;;;;;20.90;101305.00;;;;10469975;28;20228;-78
2021/09/16 08:53:17;;;;;;;15.55;10.00;;;;;21.20;101304.00;;;;10516807;27;20212;-79
2021/09/16 08:58:22;;;;;;;11.98;10.00;;;;;21.00;101303.00;;;;10505823;27;20217;-78
2021/09/16 09:03:23;;;;;;;13.57;10.85;;;;;21.40;101297.00;;;;10486611;28;20195;-79
2021/09/16 09:08:26;;;;;;;12.70;9.35;;;;;21.90;101293.00;;;;10502578;28;20791;-77
2021/09/16 09:13:27;;;;;;;8.10;6.85;;;;;22.20;101297.00;;;;10543775;27;20767;-77
2021/09/16 09:18:43;;;;;;;9.82;7.65;;;;;21.80;101306.00;;;;10522135;27;20200;-76
2021/09/16 09:23:54;;;;;;;7.13;6.43;;;;;22.20;101296.00;;;;10526407;27;20558;-77
2021/09/16 09:29:13;;;;;;;5.78;4.30;;;;;22.30;101302.00;;;;10509034;27;20683;-78
2021/09/16 09:34:37;;;;;;;5.47;4.43;;;;;22.70;101306.00;;;;10556097;27;20563;-77
2021/09/16 09:39:41;;;;;;;7.00;5.82;;;;;23.40;101293.00;;;;10528047;27;20691;-78
2021/09/16 09:44:42;;;;;;;7.10;5.43;;;;;23.40;101299.00;;;;10525274;28;20698;-77
2021/09/16 09:49:43;;;;;;;6.20;4.38;;;;;23.50;101299.00;;;;10517711;28;20232;-77
2021/09/16 09:54:44;;;;;;;7.43;4.35;;;;;23.90;101295.00;;;;10504909;27;20214;-77
2021/09/16 09:59:48;;;;;;;5.50;4.90;;;;;24.20;101298.00;;;;10491589;28;20208;-77
2021/09/16 10:04:50;;;;;;;6.93;4.22;;;;;24.20;101293.00;;;;10508478;28;20249;-77
2021/09/16 10:09:56;;;;;;;5.82;4.05;;;;;24.50;101296.00;;;;10523160;28;20223;-78
2021/09/16 10:14:57;;;;;;;7.65;4.05;;;;;24.40;101300.00;;;;10524392;28;20194;-77
2021/09/16 10:19:58;;;;;;;4.38;3.25;;;;;24.20;101296.00;;;;10521632;27;20221;-78
2021/09/16 10:25:04;;;;;;;5.25;3.55;;;;;24.00;101292.00;;;;10532993;28;20193;-78
2021/09/16 10:30:23;;;;;;;4.18;3.28;;;;;24.30;101286.00;;;;10499857;28;20303;-78
2021/09/16 10:35:24;;;;;;;3.38;2.85;;;;;24.40;101283.00;;;;10512475;28;20200;-78
2021/09/16 10:40:30;;;;;;;5.88;3.80;;;;;24.40;101290.00;;;;10513794;27;20232;-79
2021/09/16 10:45:37;;;;;;;5.38;4.10;;;;;24.70;101288.00;;;;10529119;28;20558;-77
2021/09/16 10:50:50;;;;;;;9.25;5.00;;;;;24.50;101285.00;;;;10526575;28;20225;-78
2021/09/16 10:55:51;;;;;;;6.15;4.63;;;;;24.60;101287.00;;;;10495935;28;20249;-78
2021/09/16 11:00:53;;;;;;;8.43;5.78;;;;;24.60;101282.00;;;;10534977;27;20253;-77
2021/09/16 11:05:58;;;;;;;6.45;5.53;;;;;24.80;101283.00;;;;10506234;28;20207;-77
2021/09/16 11:11:01;;;;;;;6.55;5.60;;;;;25.40;101281.00;;;;10517030;28;20239;-78
2021/09/16 11:16:05;;;;;;;9.07;6.07;;;;;25.70;101288.00;;;;10529468;28;20735;-78
2021/09/16 11:21:20;;;;;;;7.47;5.78;;;;;24.00;101283.00;;;;10545570;27;20345;-77
2021/09/16 11:26:23;;;;;;;7.75;6.15;;;;;23.50;101286.00;;;;10523035;28;20235;-77
2021/09/16 11:31:24;;;;;;;6.95;5.68;;;;;24.70;101280.00;;;;10540043;27;20219;-77
2021/09/16 11:36:26;;;;;;;8.40;6.50;;;;;24.20;101288.00;;;;10522335;28;20867;-77
2021/09/16 11:41:27;;;;;;;9.45;5.85;;;;;24.70;101301.00;;;;10543015;28;20308;-77
2021/09/16 11:46:32;;;;;;;6.72;5.38;;;;;23.10;101289.00;;;;10542340;27;20209;-78
2021/09/16 11:51:33;;;;;;;6.05;5.15;;;;;24.10;101286.00;;;;10518431;27;20221;-78
2021/09/16 11:56:34;;;;;;;6.20;5.32;;;;;23.90;101282.00;;;;10532787;28;20197;-78
2021/09/16 12:01:36;;;;;;;7.72;5.45;;;;;25.00;101283.00;;;;10562650;27;20202;-77
2021/09/16 12:06:38;;;;;;;6.25;4.90;;;;;25.80;101277.00;;;;10550985;28;20232;-77
2021/09/16 12:11:40;;;;;;;5.80;5.20;;;;;26.00;101271.00;;;;10538512;27;20212;-78
2021/09/16 12:16:41;;;;;;;5.07;4.50;;;;;25.70;101275.00;;;;10534724;27;20195;-78
2021/09/16 12:21:45;;;;;;;5.63;4.32;;;;;25.50;101278.00;;;;10517605;27;20522;-77
2021/09/16 12:26:49;;;;;;;5.53;4.90;;;;;24.50;101282.00;;;;10562420;27;20570;-77
2021/09/16 12:32:08;;;;;;;4.57;3.75;;;;;23.00;101285.00;;;;10538527;28;20690;-76
2021/09/16 12:37:16;;;;;;;4.65;3.70;;;;;23.80;101268.00;;;;10529057;27;20297;-77
2021/09/16 12:42:28;;;;;;;6.03;4.65;;;;;24.60;101269.00;;;;10524356;28;20303;-78
2021/09/16 12:47:30;;;;;;;5.25;3.78;;;;;25.50;101271.00;;;;10540685;27;20336;-78
2021/09/16 12:52:31;;;;;;;5.18;4.68;;;;;26.30;101256.00;;;;10531939;28;20227;-78
2021/09/16 12:57:35;;;;;;;5.47;3.67;;;;;24.90;101265.00;;;;10528705;27;20815;-77
2021/09/16 13:02:49;;;;;;;9.30;3.67;;;;;24.80;101261.00;;;;10536745;27;20575;-78
2021/09/16 13:08:12;;;;;;;5.60;4.07;;;;;24.20;101259.00;;;;10515963;28;20216;-77
2021/09/16 13:13:16;;;;;;;5.25;4.38;;;;;25.00;101245.00;;;;10527111;28;20648;-78
2021/09/16 13:18:17;;;;;;;6.28;4.18;;;;;24.40;101256.00;;;;10538351;27;20192;-78
2021/09/16 13:23:19;;;;;;;5.60;3.42;;;;;24.10;101255.00;;;;10535530;27;20614;-78
2021/09/16 13:28:20;;;;;;;6.55;3.60;;;;;24.00;101245.00;;;;10522340;28;20655;-77
2021/09/16 13:33:21;;;;;;;5.60;4.57;;;;;23.60;101249.00;;;;10541667;27;20716;-78
2021/09/16 13:38:22;;;;;;;6.00;5.25;;;;;22.90;101256.00;;;;10537563;27;20216;-77
2021/09/16 13:43:24;;;;;;;11.05;6.90;;;;;23.20;101243.00;;;;10521327;27;20239;-77
2021/09/16 13:48:25;;;;;;;6.53;5.82;;;;;24.30;101238.00;;;;10486858;27;20209;-78
2021/09/16 13:53:26;;;;;;;5.05;4.55;;;;;25.40;101233.00;;;;10513652;28;20192;-77
2021/09/16 13:58:28;;;;;;;5.35;4.22;;;;;25.20;101235.00;;;;10510978;28;20208;-77
2021/09/16 14:03:29;;;;;;;7.35;4.72;;;;;24.40;101244.00;;;;10554047;27;20196;-77
2021/09/16 14:08:30;;;;;;;6.95;4.63;;;;;23.70;101231.00;;;;10539100;28;20224;-77
2021/09/16 14:13:32;;;;;;;8.15;5.50;;;;;23.20;101240.00;;;;10552581;27;20196;-77
2021/09/16 14:18:33;;;;;;;7.85;5.15;;;;;22.90;101240.00;;;;10532915;28;20200;-77
2021/09/16 14:23:34;;;;;;;8.70;6.07;;;;;22.70;101235.00;;;;10546626;27;20191;-77
2021/09/16 14:28:36;;;;;;;6.75;4.82;;;;;22.70;101234.00;;;;10586627;27;20215;-77
2021/09/16 14:33:37;;;;;;;5.03;3.97;;;;;22.60;101229.00;;;;10544923;27;20207;-77
2021/09/16 14:38:38;;;;;;;5.00;4.47;;;;;23.20;101229.00;;;;10539151;27;20251;-78
2021/09/16 14:43:40;;;;;;;6.60;3.20;;;;;23.70;101219.00;;;;10516498;27;20197;-77
2021/09/16 14:48:41;;;;;;;6.93;3.92;;;;;23.90;101228.00;;;;10546810;27;20228;-77
2021/09/16 14:53:43;;;;;;;4.60;3.90;;;;;24.60;101226.00;;;;10528205;27;20205;-77
2021/09/16 14:58:44;;;;;;;4.75;4.10;;;;;23.90;101220.00;;;;10521529;28;20298;-77
2021/09/16 15:03:45;;;;;;;4.40;3.70;;;;;23.60;101218.00;;;;10527665;27;20263;-77
2021/09/16 15:08:47;;;;;;;5.45;4.00;;;;;23.50;101216.00;;;;10518134;27;20334;-77
2021/09/16 15:13:48;;;;;;;5.45;3.78;;;;;23.40;101211.00;;;;10567252;28;20211;-77
2021/09/16 15:18:49;;;;;;;4.45;4.05;;;;;22.80;101227.00;;;;10528483;28;20291;-78
2021/09/16 15:23:51;;;;;;;22.10;4.65;;;;;22.10;101215.00;;;;10559586;27;20200;-80
2021/09/16 15:28:52;;;;;;;3.92;3.53;;;;;22.20;101221.00;;;;10524290;27;20315;-78
2021/09/16 15:33:54;;;;;;;4.97;3.58;;;;;22.10;101220.00;;;;10543874;27;20260;-78
2021/09/16 15:38:55;;;;;;;3.80;3.33;;;;;22.00;101220.00;;;;10517865;28;20270;-77
2021/09/16 15:43:56;;;;;;;5.28;4.00;;;;;21.70;101217.00;;;;10499650;28;20288;-78
2021/09/16 15:48:58;;;;;;;4.88;4.00;;;;;21.40;101222.00;;;;10534512;27;20216;-78
2021/09/16 15:53:59;;;;;;;5.03;4.38;;;;;21.10;101227.00;;;;10532186;28;20197;-78
2021/09/16 15:59:01;;;;;;;4.32;3.92;;;;;20.90;101237.00;;;;10517706;28;20196;-78
2021/09/16 16:04:02;;;;;;;4.25;3.85;;;;;20.80;101224.00;;;;10531603;27;20207;-78
2021/09/16 16:09:05;;;;;;;5.35;4.25;;;;;20.60;101229.00;;;;10517172;28;20243;-78
2021/09/16 16:14:06;;;;;;;8.18;4.82;;;;;20.40;101233.00;;;;10525230;27;20192;-78
2021/09/16 16:19:09;;;;;;;4.60;3.88;;;;;20.30;101229.00;;;;10532326;28;20201;-78
2021/09/16 16:24:10;;;;;;;4.28;3.90;;;;;20.30;101239.00;;;;10529621;27;20540;-78
2021/09/16 16:29:12;;;;;;;6.50;4.22;;;;;20.30;101237.00;;;;10541736;27;20293;-78
2021/09/16 16:34:13;;;;;;;6.75;4.35;;;;;20.20;101240.00;;;;10557867;28;20219;-79
2021/09/16 16:39:14;;;;;;;5.82;4.13;;;;;20.20;101232.00;;;;10514744;28;20244;-78
2021/09/16 16:44:15;;;;;;;4.03;3.67;;;;;20.20;101240.00;;;;10499922;28;20226;-78
2021/09/16 16:49:17;;;;;;;4.35;3.95;;;;;20.10;101234.00;;;;10534469;28;20231;-79
2021/09/16 16:54:18;;;;;;;7.93;4.22;;;;;20.10;101247.00;;;;10522477;28;20193;-78
2021/09/16 16:59:19;;;;;;;4.30;3.90;;;;;19.90;101242.00;;;;10494588;27;20290;-78
2021/09/16 17:04:21;;;;;;;5.25;4.75;;;;;19.70;101237.00;;;;10483310;28;20595;-78
2021/09/16 17:09:22;;;;;;;4.65;4.22;;;;;19.60;101241.00;;;;10483012;28;20232;-78
2021/09/16 17:14:23;;;;;;;4.70;4.20;;;;;19.50;101242.00;;;;10498470;28;20273;-78
2021/09/16 17:19:29;;;;;;;7.10;4.35;;;;;19.30;101238.00;;;;10507637;27;20245;-79
2021/09/16 17:24:30;;;;;;;4.20;3.80;;;;;19.10;101244.00;;;;10499958;28;20288;-78
2021/09/16 17:29:31;;;;;;;4.72;4.22;;;;;18.80;101244.00;;;;10514313;27;20224;-79
2021/09/16 17:34:32;;;;;;;5.35;4.25;;;;;18.60;101243.00;;;;10552733;27;20196;-78
2021/09/16 17:39:38;;;;;;;5.43;4.45;;;;;18.30;101242.00;;;;10497314;28;20746;-79
2021/09/16 17:44:39;;;;;;;7.60;4.70;;;;;18.10;101245.00;;;;10514844;28;20232;-78
2021/09/16 17:49:40;;;;;;;8.77;5.40;;;;;17.90;101242.00;;;;10512449;27;20226;-79
2021/09/16 17:54:41;;;;;;;5.80;4.95;;;;;17.70;101249.00;;;;10520306;27;20203;-78
2021/09/16 17:59:44;;;;;;;7.03;5.05;;;;;17.50;101254.00;;;;10510605;28;20212;-79
2021/09/16 18:04:48;;;;;;;6.60;5.20;;;;;17.30;101260.00;;;;10493459;28;20230;-79
2021/09/16 18:09:50;;;;;;;6.97;4.90;;;;;17.10;101265.00;;;;10478578;28;20859;-78
2021/09/16 18:14:51;;;;;;;8.27;5.85;;;;;16.90;101268.00;;;;10512452;28;20206;-79
2021/09/16 18:19:52;;;;;;;7.80;7.00;;;;;16.80;101272.00;;;;10493961;28;20217;-79
2021/09/16 18:24:53;;;;;;;7.28;6.57;;;;;16.70;101263.00;;;;10516914;28;20253;-79
2021/09/16 18:29:54;;;;;;;7.53;6.82;;;;;16.50;101265.00;;;;10498260;28;20269;-79
2021/09/16 18:34:56;;;;;;;8.05;7.25;;;;;16.40;101276.00;;;;10539837;27;20204;-79
2021/09/16 18:39:57;;;;;;;10.00;7.47;;;;;16.20;101279.00;;;;10541852;27;20279;-79
2021/09/16 18:44:58;;;;;;;9.55;8.07;;;;;16.10;101285.00;;;;10499019;28;20200;-79
2021/09/16 18:50:00;;;;;;;9.55;7.05;;;;;16.00;101291.00;;;;10487642;28;20224;-79
2021/09/16 18:55:07;;;;;;;7.93;7.03;;;;;16.00;101291.00;;;;10544651;27;20196;-78
2021/09/16 19:00:10;;;;;;;10.25;7.50;;;;;15.90;101305.00;;;;10515394;28;20196;-79
2021/09/16 19:05:32;;;;;;;9.48;7.40;;;;;15.80;101302.00;;;;10516024;27;20200;-79
2021/09/16 19:10:33;;;;;;;9.07;6.78;;;;;15.70;101305.00;;;;10501442;28;20227;-79
2021/09/16 19:15:36;;;;;;;9.50;8.18;;;;;15.60;101306.00;;;;10559753;28;20188;-79
2021/09/16 19:20:39;;;;;;;8.00;7.20;;;;;15.50;101310.00;;;;10544054;27;20187;-78
2021/09/16 19:25:41;;;;;;;9.23;7.78;;;;;15.40;101312.00;;;;10510034;27;20287;-78
2021/09/16 19:30:44;;;;;;;9.97;8.90;;;;;15.30;101305.00;;;;10526372;27;20224;-78
2021/09/16 19:35:45;;;;;;;8.05;7.28;;;;;15.20;101309.00;;;;10535332;27;20200;-79
2021/09/16 19:40:47;;;;;;;8.95;7.40;;;;;15.20;101319.00;;;;10507658;27;20757;-78
2021/09/16 19:45:48;;;;;;;9.67;7.93;;;;;15.10;101311.00;;;;10542213;27;20665;-78
2021/09/16 19:50:49;;;;;;;13.73;11.30;;;;;14.90;101311.00;;;;10524502;27;20230;-78
2021/09/16 19:55:55;;;;;;;12.77;10.23;;;;;14.80;101304.00;;;;10526914;27;20207;-79
2021/09/16 20:00:56;;;;;;;12.60;10.80;;;;;14.80;101318.00;;;;10500769;28;20212;-79
2021/09/16 20:05:57;;;;;;;11.27;9.80;;;;;14.70;101308.00;;;;10530845;27;20196;-79
2021/09/16 20:10:58;;;;;;;13.33;10.50;;;;;14.70;101305.00;;;;10523503;27;20220;-79
2021/09/16 20:16:00;;;;;;;13.43;11.60;;;;;14.60;101304.00;;;;10524036;27;20207;-78
2021/09/16 20:21:11;;;;;;;18.37;14.27;;;;;14.60;101310.00;;;;10517762;27;20204;-79
2021/09/16 20:26:12;;;;;;;15.03;12.57;;;;;14.50;101311.00;;;;10535084;28;20199;-78
2021/09/16 20:31:13;;;;;;;14.03;10.53;;;;;14.40;101307.00;;;;10517636;28;20688;-78
2021/09/16 20:36:14;;;;;;;13.20;9.87;;;;;14.40;101312.00;;;;10506712;27;20192;-79
2021/09/16 20:41:16;;;;;;;16.60;10.30;;;;;14.30;101318.00;;;;10514156;28;20239;-79
2021/09/16 20:46:17;;;;;;;12.60;9.83;;;;;14.30;101313.00;;;;10516874;28;20861;-79
2021/09/16 20:51:18;;;;;;;14.77;10.03;;;;;14.20;101305.00;;;;10523097;28;20223;-79
2021/09/16 20:56:22;;;;;;;11.23;9.13;;;;;14.20;101310.00;;;;10523445;28;20200;-79
2021/09/16 21:01:23;;;;;;;14.47;12.27;;;;;14.10;101306.00;;;;10502419;27;20208;-78
2021/09/16 21:06:25;;;;;;;13.53;10.40;;;;;14.10;101306.00;;;;10511566;28;20224;-78
2021/09/16 21:11:26;;;;;;;11.87;9.63;;;;;14.00;101307.00;;;;10482431;28;20224;-78
2021/09/16 21:16:27;;;;;;;12.60;10.97;;;;;14.00;101304.00;;;;10512374;28;20241;-78
2021/09/16 21:21:29;;;;;;;12.97;11.57;;;;;13.90;101298.00;;;;10506683;27;20693;-79
2021/09/16 21:26:30;;;;;;;16.03;12.53;;;;;13.90;101299.00;;;;10506231;27;20218;-79
2021/09/16 21:31:31;;;;;;;14.03;12.53;;;;;13.90;101307.00;;;;10497938;28;20220;-78
2021/09/16 21:36:34;;;;;;;17.13;13.17;;;;;13.90;101306.00;;;;10499360;28;20242;-78
2021/09/16 21:41:36;;;;;;;16.87;11.93;;;;;13.90;101309.00;;;;10526801;27;20226;-78
2021/09/16 21:46:37;;;;;;;17.07;12.80;;;;;13.80;101310.00;;;;10525994;27;20192;-79
2021/09/16 21:51:39;;;;;;;15.80;11.57;;;;;13.70;101305.00;;;;10563363;27;20678;-78
2021/09/16 21:56:42;;;;;;;15.67;12.00;;;;;13.70;101306.00;;;;10528979;27;20191;-78
2021/09/16 22:01:44;;;;;;;17.43;12.57;;;;;13.60;101300.00;;;;10526377;27;20249;-78
2021/09/16 22:06:45;;;;;;;16.20;13.47;;;;;13.60;101302.00;;;;10506537;27;20203;-78
2021/09/16 22:11:46;;;;;;;14.40;12.80;;;;;13.60;101305.00;;;;10532482;27;20216;-78
2021/09/16 22:16:48;;;;;;;20.33;13.73;;;;;13.50;101306.00;;;;10529255;27;20196;-79
2021/09/16 22:21:49;;;;;;;14.83;10.53;;;;;13.40;101304.00;;;;10513179;27;20200;-79
2021/09/16 22:26:50;;;;;;;16.13;12.40;;;;;13.40;101303.00;;;;10521530;27;20211;-79
2021/09/16 22:31:51;;;;;;;16.60;13.13;;;;;13.50;101303.00;;;;10532835;27;20216;-78
2021/09/16 22:36:53;;;;;;;15.83;13.47;;;;;13.50;101299.00;;;;10554216;27;20190;-79
2021/09/16 22:41:55;;;;;;;16.50;12.67;;;;;13.50;101305.00;;;;10562843;27;20224;-79
2021/09/16 22:46:56;;;;;;;18.93;13.97;;;;;13.40;101306.00;;;;10546815;27;20210;-78
2021/09/16 22:51:58;;;;;;;16.13;12.83;;;;;13.40;101295.00;;;;10530065;27;20425;-79
2021/09/16 22:56:59;;;;;;;18.67;13.90;;;;;13.30;101294.00;;;;10530182;27;20219;-79
2021/09/16 23:02:01;;;;;;;20.40;13.80;;;;;13.20;101289.00;;;;10545459;28;20280;-78
2021/09/16 23:07:03;;;;;;;18.90;14.50;;;;;13.20;101288.00;;;;10520302;28;20201;-78
2021/09/16 23:12:06;;;;;;;22.87;16.43;;;;;13.10;101285.00;;;;10489401;28;20340;-79
2021/09/16 23:17:08;;;;;;;22.73;18.07;;;;;13.20;101288.00;;;;10525918;27;20566;-78
2021/09/16 23:22:09;;;;;;;21.03;16.60;;;;;13.20;101286.00;;;;10514788;27;20789;-78
2021/09/16 23:27:10;;;;;;;23.90;16.43;;;;;13.20;101281.00;;;;10523726;27;20209;-78
2021/09/16 23:32:12;;;;;;;22.50;17.30;;;;;13.10;101288.00;;;;10505823;28;20224;-78
2021/09/16 23:37:13;;;;;;;24.70;18.87;;;;;13.10;101289.00;;;;10502307;28;20203;-78
2021/09/16 23:42:15;;;;;;;23.00;18.47;;;;;13.10;101284.00;;;;10521458;28;20225;-78
2021/09/16 23:47:16;;;;;;;23.77;19.03;;;;;13.10;101284.00;;;;10521764;28;20193;-79
2021/09/16 23:52:17;;;;;;;29.07;19.73;;;;;13.10;101282.00;;;;10522403;28;20302;-78
2021/09/16 23:57:18;;;;;;;23.07;17.53;;;;;13.10;101279.00;;;;10526452;28;20768;-78
